sensor_id;sensor_type;location;lat;lon;timestamp;P1;durP1;ratioP1;P2;durP2;ratioP2
16320;SDS011;8269;50.990;4.494;2022-12-24T15:13:25;33.65;;;8.48;;
16320;SDS011;8269;50.990;4.494;2022-12-24T15:15:54;37.13;;;10.85;;
16320;SDS011;8269;50.990;4.494;2022-12-24T15:18:48;32.35;;;10.13;;
16320;SDS011;8269;50.990;4.494;2022-12-24T15:21:16;37.05;;;10.85;;
16320;SDS011;8269;50.990;4.494;2022-12-24T15:23:46;36.67;;;10.60;;
16320;SDS011;8269;50.990;4.494;2022-12-24T15:28:39;38.33;;;10.93;;
16320;SDS011;8269;50.990;4.494;2022-12-24T15:31:07;37.58;;;11.43;;
16320;SDS011;8269;50.990;4.494;2022-12-24T15:33:35;38.47;;;10.85;;
16320;SDS011;8269;50.990;4.494;2022-12-24T15:36:01;35.50;;;10.55;;
16320;SDS011;8269;50.990;4.494;2022-12-24T15:38:38;38.65;;;10.38;;
16320;SDS011;8269;50.990;4.494;2022-12-24T15:41:18;37.25;;;9.75;;
16320;SDS011;8269;50.990;4.494;2022-12-24T15:43:45;34.95;;;10.02;;
16320;SDS011;8269;50.990;4.494;2022-12-24T15:46:24;38.85;;;10.23;;
16320;SDS011;8269;50.990;4.494;2022-12-24T15:48:51;36.53;;;9.95;;
16320;SDS011;8269;50.990;4.494;2022-12-24T15:51:36;35.28;;;10.82;;
16320;SDS011;8269;50.990;4.494;2022-12-24T15:54:04;40.90;;;10.82;;
16320;SDS011;8269;50.990;4.494;2022-12-24T15:56:33;41.20;;;10.55;;
16320;SDS011;8269;50.990;4.494;2022-12-24T16:01:44;39.40;;;10.88;;
16320;SDS011;8269;50.990;4.494;2022-12-24T16:04:29;36.10;;;10.13;;
16320;SDS011;8269;50.990;4.494;2022-12-24T16:07:00;34.50;;;10.93;;
16320;SDS011;8269;50.990;4.494;2022-12-24T16:09:42;35.03;;;10.75;;
16320;SDS011;8269;50.990;4.494;2022-12-24T16:12:14;39.25;;;11.70;;
16320;SDS011;8269;50.990;4.494;2022-12-24T16:14:44;39.20;;;11.27;;
16320;SDS011;8269;50.990;4.494;2022-12-24T16:17:18;37.53;;;11.38;;
16320;SDS011;8269;50.990;4.494;2022-12-24T16:19:46;39.08;;;10.60;;
16320;SDS011;8269;50.990;4.494;2022-12-24T16:22:13;35.83;;;10.18;;
16320;SDS011;8269;50.990;4.494;2022-12-24T16:27:47;36.55;;;10.70;;
16320;SDS011;8269;50.990;4.494;2022-12-24T16:30:13;38.63;;;11.40;;
16320;SDS011;8269;50.990;4.494;2022-12-24T16:32:41;41.13;;;10.77;;
16320;SDS011;8269;50.990;4.494;2022-12-24T16:35:26;39.73;;;11.37;;
16320;SDS011;8269;50.990;4.494;2022-12-24T16:37:54;39.33;;;11.30;;
16320;SDS011;8269;50.990;4.494;2022-12-24T16:40:20;37.17;;;11.90;;
16320;SDS011;8269;50.990;4.494;2022-12-24T16:42:46;39.00;;;12.88;;
16320;SDS011;8269;50.990;4.494;2022-12-24T16:45:31;40.58;;;12.13;;
16320;SDS011;8269;50.990;4.494;2022-12-24T16:47:59;41.65;;;12.05;;
16320;SDS011;8269;50.990;4.494;2022-12-24T16:50:26;38.63;;;12.30;;
16320;SDS011;8269;50.990;4.494;2022-12-24T16:52:52;39.58;;;13.27;;
16320;SDS011;8269;50.990;4.494;2022-12-24T16:55:18;41.10;;;15.60;;
16320;SDS011;8269;50.990;4.494;2022-12-24T16:57:44;43.80;;;16.17;;
16320;SDS011;8269;50.990;4.494;2022-12-24T17:00:13;38.55;;;15.80;;
16320;SDS011;8269;50.990;4.494;2022-12-24T17:02:39;37.63;;;14.40;;
16320;SDS011;8269;50.990;4.494;2022-12-24T17:05:05;43.25;;;15.15;;
16320;SDS011;8269;50.990;4.494;2022-12-24T17:07:31;40.70;;;14.95;;
16320;SDS011;8269;50.990;4.494;2022-12-24T17:09:57;48.22;;;16.38;;
16320;SDS011;8269;50.990;4.494;2022-12-24T17:12:23;45.45;;;17.55;;
16320;SDS011;8269;50.990;4.494;2022-12-24T17:14:49;46.95;;;18.13;;
16320;SDS011;8269;50.990;4.494;2022-12-24T17:17:23;45.92;;;16.42;;
16320;SDS011;8269;50.990;4.494;2022-12-24T17:19:49;44.35;;;15.30;;
16320;SDS011;8269;50.990;4.494;2022-12-24T17:22:15;44.80;;;15.60;;
16320;SDS011;8269;50.990;4.494;2022-12-24T17:24:41;42.17;;;15.60;;
16320;SDS011;8269;50.990;4.494;2022-12-24T17:27:08;46.72;;;15.40;;
16320;SDS011;8269;50.990;4.494;2022-12-24T17:29:34;36.80;;;14.18;;
16320;SDS011;8269;50.990;4.494;2022-12-24T17:32:00;45.30;;;15.23;;
16320;SDS011;8269;50.990;4.494;2022-12-24T17:34:26;39.50;;;13.50;;
16320;SDS011;8269;50.990;4.494;2022-12-24T17:36:52;39.92;;;15.20;;
16320;SDS011;8269;50.990;4.494;2022-12-24T17:39:18;41.85;;;15.57;;
16320;SDS011;8269;50.990;4.494;2022-12-24T17:41:44;41.03;;;18.23;;
16320;SDS011;8269;50.990;4.494;2022-12-24T17:44:14;46.70;;;18.38;;
16320;SDS011;8269;50.990;4.494;2022-12-24T17:46:40;40.50;;;16.10;;
16320;SDS011;8269;50.990;4.494;2022-12-24T17:49:06;40.67;;;17.60;;
16320;SDS011;8269;50.990;4.494;2022-12-24T17:51:32;38.90;;;16.27;;
16320;SDS011;8269;50.990;4.494;2022-12-24T17:53:59;41.97;;;17.30;;
16320;SDS011;8269;50.990;4.494;2022-12-24T17:56:25;46.30;;;18.73;;
16320;SDS011;8269;50.990;4.494;2022-12-24T17:58:51;44.42;;;19.63;;
16320;SDS011;8269;50.990;4.494;2022-12-24T18:01:19;45.08;;;18.70;;
16320;SDS011;8269;50.990;4.494;2022-12-24T18:03:46;43.40;;;20.02;;
16320;SDS011;8269;50.990;4.494;2022-12-24T18:06:13;45.42;;;19.45;;
16320;SDS011;8269;50.990;4.494;2022-12-24T18:08:40;44.97;;;20.47;;
16320;SDS011;8269;50.990;4.494;2022-12-24T18:11:16;45.05;;;20.02;;
16320;SDS011;8269;50.990;4.494;2022-12-24T18:13:43;53.97;;;24.08;;
16320;SDS011;8269;50.990;4.494;2022-12-24T18:16:14;52.42;;;21.05;;
16320;SDS011;8269;50.990;4.494;2022-12-24T18:18:40;48.42;;;22.70;;
16320;SDS011;8269;50.990;4.494;2022-12-24T18:21:06;53.80;;;26.08;;
16320;SDS011;8269;50.990;4.494;2022-12-24T18:23:32;50.13;;;21.83;;
16320;SDS011;8269;50.990;4.494;2022-12-24T18:26:02;50.83;;;23.92;;
16320;SDS011;8269;50.990;4.494;2022-12-24T18:28:28;52.92;;;22.55;;
16320;SDS011;8269;50.990;4.494;2022-12-24T18:30:58;51.10;;;21.30;;
16320;SDS011;8269;50.990;4.494;2022-12-24T18:33:24;47.60;;;21.33;;
16320;SDS011;8269;50.990;4.494;2022-12-24T18:35:50;50.08;;;21.75;;
16320;SDS011;8269;50.990;4.494;2022-12-24T18:38:17;50.85;;;21.02;;
16320;SDS011;8269;50.990;4.494;2022-12-24T18:40:43;52.08;;;23.88;;
16320;SDS011;8269;50.990;4.494;2022-12-24T18:43:09;52.80;;;22.17;;
16320;SDS011;8269;50.990;4.494;2022-12-24T18:45:38;48.25;;;19.70;;
16320;SDS011;8269;50.990;4.494;2022-12-24T18:48:05;46.35;;;22.52;;
16320;SDS011;8269;50.990;4.494;2022-12-24T18:50:31;46.45;;;21.13;;
16320;SDS011;8269;50.990;4.494;2022-12-24T18:52:57;42.70;;;20.52;;
16320;SDS011;8269;50.990;4.494;2022-12-24T18:55:23;53.42;;;30.23;;
16320;SDS011;8269;50.990;4.494;2022-12-24T18:57:48;55.03;;;27.93;;
16320;SDS011;8269;50.990;4.494;2022-12-24T19:00:14;51.73;;;24.30;;
16320;SDS011;8269;50.990;4.494;2022-12-24T19:02:40;49.23;;;25.50;;
16320;SDS011;8269;50.990;4.494;2022-12-24T19:05:06;49.60;;;22.63;;
16320;SDS011;8269;50.990;4.494;2022-12-24T19:07:33;52.65;;;22.88;;
16320;SDS011;8269;50.990;4.494;2022-12-24T19:09:58;50.30;;;22.75;;
16320;SDS011;8269;50.990;4.494;2022-12-24T19:12:25;48.22;;;24.25;;
16320;SDS011;8269;50.990;4.494;2022-12-24T19:14:51;52.67;;;24.98;;
16320;SDS011;8269;50.990;4.494;2022-12-24T19:17:17;54.67;;;26.02;;
16320;SDS011;8269;50.990;4.494;2022-12-24T19:19:43;50.97;;;24.13;;
16320;SDS011;8269;50.990;4.494;2022-12-24T19:22:09;49.72;;;23.92;;
16320;SDS011;8269;50.990;4.494;2022-12-24T19:24:35;50.17;;;23.40;;
16320;SDS011;8269;50.990;4.494;2022-12-24T19:27:01;52.55;;;23.45;;
16320;SDS011;8269;50.990;4.494;2022-12-24T19:29:27;46.17;;;21.40;;
16320;SDS011;8269;50.990;4.494;2022-12-24T19:31:53;52.72;;;22.88;;
16320;SDS011;8269;50.990;4.494;2022-12-24T19:34:19;51.90;;;30.75;;
16320;SDS011;8269;50.990;4.494;2022-12-24T19:36:45;51.05;;;27.33;;
16320;SDS011;8269;50.990;4.494;2022-12-24T19:39:12;47.40;;;22.92;;
16320;SDS011;8269;50.990;4.494;2022-12-24T19:41:38;46.47;;;22.30;;
16320;SDS011;8269;50.990;4.494;2022-12-24T19:44:04;48.53;;;23.27;;
16320;SDS011;8269;50.990;4.494;2022-12-24T19:46:31;49.50;;;23.45;;
16320;SDS011;8269;50.990;4.494;2022-12-24T19:49:01;51.13;;;23.10;;
16320;SDS011;8269;50.990;4.494;2022-12-24T19:51:31;45.13;;;22.67;;
16320;SDS011;8269;50.990;4.494;2022-12-24T19:53:57;47.97;;;24.43;;
16320;SDS011;8269;50.990;4.494;2022-12-24T19:56:23;48.08;;;22.15;;
16320;SDS011;8269;50.990;4.494;2022-12-24T19:58:50;42.03;;;20.60;;
16320;SDS011;8269;50.990;4.494;2022-12-24T20:01:18;44.55;;;20.65;;
16320;SDS011;8269;50.990;4.494;2022-12-24T20:03:44;43.28;;;22.27;;
16320;SDS011;8269;50.990;4.494;2022-12-24T20:06:11;45.47;;;21.30;;
16320;SDS011;8269;50.990;4.494;2022-12-24T20:08:38;43.20;;;20.30;;
16320;SDS011;8269;50.990;4.494;2022-12-24T20:11:07;43.45;;;20.33;;
16320;SDS011;8269;50.990;4.494;2022-12-24T20:13:37;41.35;;;20.55;;
16320;SDS011;8269;50.990;4.494;2022-12-24T20:16:04;39.87;;;19.00;;
16320;SDS011;8269;50.990;4.494;2022-12-24T20:18:30;39.25;;;19.40;;
16320;SDS011;8269;50.990;4.494;2022-12-24T20:20:57;36.77;;;17.93;;
16320;SDS011;8269;50.990;4.494;2022-12-24T20:23:25;35.50;;;17.45;;
16320;SDS011;8269;50.990;4.494;2022-12-24T20:26:01;39.00;;;17.23;;
16320;SDS011;8269;50.990;4.494;2022-12-24T20:28:29;37.25;;;17.17;;
16320;SDS011;8269;50.990;4.494;2022-12-24T20:30:55;38.63;;;17.45;;
16320;SDS011;8269;50.990;4.494;2022-12-24T20:33:21;35.33;;;17.30;;
16320;SDS011;8269;50.990;4.494;2022-12-24T20:35:47;39.17;;;21.30;;
16320;SDS011;8269;50.990;4.494;2022-12-24T20:38:13;37.83;;;20.13;;
16320;SDS011;8269;50.990;4.494;2022-12-24T20:40:40;36.95;;;16.45;;
16320;SDS011;8269;50.990;4.494;2022-12-24T20:43:06;37.20;;;22.27;;
16320;SDS011;8269;50.990;4.494;2022-12-24T20:45:32;37.33;;;20.10;;
16320;SDS011;8269;50.990;4.494;2022-12-24T20:47:58;37.95;;;19.10;;
16320;SDS011;8269;50.990;4.494;2022-12-24T20:50:24;39.15;;;19.52;;
16320;SDS011;8269;50.990;4.494;2022-12-24T20:52:51;36.53;;;17.58;;
16320;SDS011;8269;50.990;4.494;2022-12-24T20:55:18;34.40;;;17.13;;
16320;SDS011;8269;50.990;4.494;2022-12-24T20:57:47;35.22;;;15.95;;
16320;SDS011;8269;50.990;4.494;2022-12-24T21:00:13;29.50;;;13.18;;
16320;SDS011;8269;50.990;4.494;2022-12-24T21:02:40;34.30;;;13.60;;
16320;SDS011;8269;50.990;4.494;2022-12-24T21:05:08;28.92;;;12.35;;
16320;SDS011;8269;50.990;4.494;2022-12-24T21:07:34;32.83;;;14.57;;
16320;SDS011;8269;50.990;4.494;2022-12-24T21:10:03;30.20;;;12.97;;
16320;SDS011;8269;50.990;4.494;2022-12-24T21:12:29;28.73;;;13.23;;
16320;SDS011;8269;50.990;4.494;2022-12-24T21:15:21;34.13;;;13.10;;
16320;SDS011;8269;50.990;4.494;2022-12-24T21:17:48;29.40;;;13.70;;
16320;SDS011;8269;50.990;4.494;2022-12-24T21:20:14;27.30;;;12.32;;
16320;SDS011;8269;50.990;4.494;2022-12-24T21:22:41;30.88;;;13.73;;
16320;SDS011;8269;50.990;4.494;2022-12-24T21:25:07;27.63;;;12.93;;
16320;SDS011;8269;50.990;4.494;2022-12-24T21:27:33;24.90;;;12.48;;
16320;SDS011;8269;50.990;4.494;2022-12-24T21:29:59;30.17;;;13.40;;
16320;SDS011;8269;50.990;4.494;2022-12-24T21:32:25;31.13;;;12.90;;
16320;SDS011;8269;50.990;4.494;2022-12-24T21:34:52;33.95;;;14.57;;
16320;SDS011;8269;50.990;4.494;2022-12-24T21:37:18;30.85;;;12.98;;
16320;SDS011;8269;50.990;4.494;2022-12-24T21:39:44;27.35;;;12.85;;
16320;SDS011;8269;50.990;4.494;2022-12-24T21:42:11;28.73;;;13.32;;
16320;SDS011;8269;50.990;4.494;2022-12-24T21:44:38;25.15;;;11.95;;
16320;SDS011;8269;50.990;4.494;2022-12-24T21:47:03;25.52;;;12.52;;
16320;SDS011;8269;50.990;4.494;2022-12-24T21:49:30;26.75;;;12.05;;
16320;SDS011;8269;50.990;4.494;2022-12-24T21:52:14;21.55;;;11.23;;
16320;SDS011;8269;50.990;4.494;2022-12-24T21:54:40;25.20;;;11.55;;
16320;SDS011;8269;50.990;4.494;2022-12-24T21:57:07;27.02;;;11.68;;
16320;SDS011;8269;50.990;4.494;2022-12-24T21:59:53;25.90;;;11.68;;
16320;SDS011;8269;50.990;4.494;2022-12-24T22:02:19;25.65;;;11.60;;
16320;SDS011;8269;50.990;4.494;2022-12-24T22:04:46;29.10;;;11.63;;
16320;SDS011;8269;50.990;4.494;2022-12-24T22:07:26;27.37;;;11.30;;
16320;SDS011;8269;50.990;4.494;2022-12-24T22:10:11;28.27;;;12.02;;
16320;SDS011;8269;50.990;4.494;2022-12-24T22:13:00;28.17;;;11.60;;
16320;SDS011;8269;50.990;4.494;2022-12-24T22:15:31;28.13;;;12.10;;
16320;SDS011;8269;50.990;4.494;2022-12-24T22:17:57;26.23;;;12.95;;
16320;SDS011;8269;50.990;4.494;2022-12-24T22:20:23;25.50;;;12.75;;
16320;SDS011;8269;50.990;4.494;2022-12-24T22:22:49;28.23;;;13.35;;
16320;SDS011;8269;50.990;4.494;2022-12-24T22:25:15;25.85;;;12.70;;
16320;SDS011;8269;50.990;4.494;2022-12-24T22:27:41;27.27;;;13.00;;
16320;SDS011;8269;50.990;4.494;2022-12-24T22:30:08;25.02;;;12.45;;
16320;SDS011;8269;50.990;4.494;2022-12-24T22:32:34;29.15;;;13.63;;
16320;SDS011;8269;50.990;4.494;2022-12-24T22:35:01;24.88;;;12.77;;
16320;SDS011;8269;50.990;4.494;2022-12-24T22:37:27;28.42;;;14.40;;
16320;SDS011;8269;50.990;4.494;2022-12-24T22:39:53;28.02;;;13.88;;
16320;SDS011;8269;50.990;4.494;2022-12-24T22:42:19;27.80;;;13.43;;
16320;SDS011;8269;50.990;4.494;2022-12-24T22:44:47;24.07;;;12.10;;
16320;SDS011;8269;50.990;4.494;2022-12-24T22:47:13;24.90;;;12.15;;
16320;SDS011;8269;50.990;4.494;2022-12-24T22:49:39;22.52;;;11.48;;
16320;SDS011;8269;50.990;4.494;2022-12-24T22:52:05;20.83;;;11.45;;
16320;SDS011;8269;50.990;4.494;2022-12-24T22:54:31;22.80;;;12.33;;
16320;SDS011;8269;50.990;4.494;2022-12-24T22:56:57;22.73;;;11.60;;
16320;SDS011;8269;50.990;4.494;2022-12-24T22:59:24;21.57;;;11.17;;
16320;SDS011;8269;50.990;4.494;2022-12-24T23:01:50;23.83;;;12.00;;
16320;SDS011;8269;50.990;4.494;2022-12-24T23:04:17;21.38;;;11.95;;
16320;SDS011;8269;50.990;4.494;2022-12-24T23:06:44;24.05;;;12.30;;
16320;SDS011;8269;50.990;4.494;2022-12-24T23:09:12;20.58;;;11.18;;
16320;SDS011;8269;50.990;4.494;2022-12-24T23:11:40;21.40;;;11.57;;
16320;SDS011;8269;50.990;4.494;2022-12-24T23:14:06;21.50;;;12.07;;
16320;SDS011;8269;50.990;4.494;2022-12-24T23:16:50;20.75;;;11.43;;
16320;SDS011;8269;50.990;4.494;2022-12-24T23:19:16;19.75;;;11.27;;
16320;SDS011;8269;50.990;4.494;2022-12-24T23:21:42;20.55;;;11.00;;
16320;SDS011;8269;50.990;4.494;2022-12-24T23:24:08;22.90;;;12.02;;
16320;SDS011;8269;50.990;4.494;2022-12-24T23:26:35;18.10;;;10.73;;
16320;SDS011;8269;50.990;4.494;2022-12-24T23:29:01;19.73;;;10.93;;
16320;SDS011;8269;50.990;4.494;2022-12-24T23:31:27;17.45;;;10.57;;
16320;SDS011;8269;50.990;4.494;2022-12-24T23:33:53;20.63;;;10.60;;
16320;SDS011;8269;50.990;4.494;2022-12-24T23:36:19;18.98;;;10.80;;
16320;SDS011;8269;50.990;4.494;2022-12-24T23:38:46;20.20;;;10.80;;
16320;SDS011;8269;50.990;4.494;2022-12-24T23:41:12;19.70;;;9.88;;
16320;SDS011;8269;50.990;4.494;2022-12-24T23:43:39;18.88;;;10.02;;
16320;SDS011;8269;50.990;4.494;2022-12-24T23:46:05;20.63;;;10.00;;
16320;SDS011;8269;50.990;4.494;2022-12-24T23:48:31;19.25;;;9.38;;
16320;SDS011;8269;50.990;4.494;2022-12-24T23:51:07;17.95;;;9.48;;
16320;SDS011;8269;50.990;4.494;2022-12-24T23:53:33;14.73;;;8.35;;
16320;SDS011;8269;50.990;4.494;2022-12-24T23:55:59;17.75;;;9.10;;
16320;SDS011;8269;50.990;4.494;2022-12-24T23:58:26;15.55;;;8.60;;
